createdAt,value
2022-09-19T00:01:12.519Z,86.15
2022-09-19T00:03:41.416Z,86.69
2022-09-19T00:06:09.374Z,86.88
2022-09-19T00:08:38.240Z,86.50
2022-09-19T00:11:07.081Z,86.98
2022-09-19T00:13:36.256Z,86.87
2022-09-19T00:16:03.673Z,86.40
2022-09-19T00:18:31.144Z,86.86
2022-09-19T00:20:57.630Z,86.86
2022-09-19T00:23:42.650Z,86.63
2022-09-19T00:26:15.667Z,86.43
2022-09-19T00:28:46.412Z,86.97
2022-09-19T00:31:18.239Z,86.31
2022-09-19T00:33:47.377Z,86.77
2022-09-19T00:36:14.966Z,86.62
2022-09-19T00:38:42.145Z,86.69
2022-09-19T00:41:09.372Z,85.93
2022-09-19T00:43:52.508Z,86.19
2022-09-19T00:46:20.579Z,86.43
2022-09-19T00:48:51.702Z,86.10
2022-09-19T00:51:28.745Z,86.40
2022-09-19T00:53:55.467Z,85.70
2022-09-19T00:56:23.897Z,86.53
2022-09-19T00:58:51.437Z,86.36
2022-09-19T01:01:18.406Z,85.93
2022-09-19T01:03:47.147Z,86.60
2022-09-19T01:06:36.979Z,86.42
2022-09-19T01:09:12.754Z,85.74
2022-09-19T01:12:02.943Z,85.88
2022-09-19T01:14:48.655Z,86.03
2022-09-19T01:17:21.926Z,85.99
2022-09-19T01:20:29.408Z,85.70
2022-09-19T01:23:17.483Z,85.77
2022-09-19T01:25:55.768Z,85.73
2022-09-19T01:28:30.191Z,86.17
2022-09-19T01:31:18.317Z,86.36
2022-09-19T01:33:53.160Z,86.07
2022-09-19T01:36:22.714Z,85.70
2022-09-19T01:38:52.975Z,85.71
2022-09-19T01:41:22.320Z,85.72
2022-09-19T01:43:50.534Z,85.47
2022-09-19T01:46:43.477Z,85.49
2022-09-19T01:49:47.558Z,85.97
2022-09-19T01:52:26.106Z,85.74
2022-09-19T01:55:10.406Z,85.80
2022-09-19T01:57:43.413Z,85.96
2022-09-19T02:00:17.259Z,85.74
2022-09-19T02:03:04.807Z,85.55
2022-09-19T02:05:53.562Z,84.77
2022-09-19T02:08:24.529Z,85.27
2022-09-19T02:10:56.074Z,85.12
2022-09-19T02:13:26.216Z,85.08
2022-09-19T02:16:01.941Z,85.33
2022-09-19T02:18:36.654Z,84.83
2022-09-19T02:21:07.682Z,85.62
2022-09-19T02:23:40.828Z,85.78
2022-09-19T02:26:10.773Z,85.63
2022-09-19T02:28:42.981Z,84.92
2022-09-19T02:31:11.036Z,84.89
2022-09-19T02:33:38.783Z,84.86
2022-09-19T02:36:32.255Z,84.83
2022-09-19T02:39:09.867Z,84.70
2022-09-19T02:41:50.794Z,85.02
2022-09-19T02:44:22.854Z,85.21
2022-09-19T02:46:58.554Z,84.51
2022-09-19T02:49:39.829Z,84.66
2022-09-19T02:52:16.714Z,84.55
2022-09-19T02:54:48.342Z,85.41
2022-09-19T02:57:19.055Z,84.34
2022-09-19T02:59:48.588Z,85.20
2022-09-19T03:02:20.836Z,85.09
2022-09-19T03:04:54.507Z,84.64
2022-09-19T03:07:29.357Z,85.00
2022-09-19T03:10:03.628Z,85.01
2022-09-19T03:12:38.867Z,84.50
2022-09-19T03:15:07.451Z,85.31
2022-09-19T03:17:44.369Z,84.92
2022-09-19T03:20:13.936Z,84.64
2022-09-19T03:22:41.441Z,84.70
2022-09-19T03:25:10.047Z,84.82
2022-09-19T03:27:38.094Z,85.39
2022-09-19T03:30:13.626Z,84.64
2022-09-19T03:32:42.361Z,85.07
2022-09-19T03:35:11.259Z,85.57
2022-09-19T03:37:38.088Z,84.83
2022-09-19T03:40:05.082Z,85.19
2022-09-19T03:42:35.826Z,85.71
2022-09-19T03:45:04.289Z,85.38
2022-09-19T03:47:30.940Z,85.14
2022-09-19T03:49:59.307Z,85.49
2022-09-19T03:52:29.788Z,85.09
2022-09-19T03:54:57.792Z,85.58
2022-09-19T03:57:24.273Z,85.50
2022-09-19T03:59:50.764Z,85.43
2022-09-19T04:02:17.372Z,86.01
2022-09-19T04:04:43.788Z,85.80
2022-09-19T04:07:10.300Z,85.21
2022-09-19T04:09:36.808Z,85.23
2022-09-19T04:12:06.366Z,85.74
2022-09-19T04:14:34.354Z,85.94
2022-09-19T04:17:21.404Z,86.04
2022-09-19T04:19:49.787Z,85.31
2022-09-19T04:22:19.975Z,85.63
2022-09-19T04:24:46.700Z,85.98
2022-09-19T04:27:17.530Z,85.97
2022-09-19T04:29:46.882Z,85.60
2022-09-19T04:32:15.789Z,85.79
2022-09-19T04:34:44.224Z,85.37
2022-09-19T04:37:11.619Z,85.71
2022-09-19T04:39:38.603Z,85.57
2022-09-19T04:42:05.862Z,85.92
2022-09-19T04:44:32.409Z,85.40
2022-09-19T04:46:59.933Z,85.91
2022-09-19T04:49:39.467Z,86.07
2022-09-19T04:52:12.095Z,86.19
2022-09-19T04:54:38.896Z,85.71
2022-09-19T04:57:06.881Z,85.79
2022-09-19T04:59:34.523Z,86.34
2022-09-19T05:02:02.614Z,86.91
2022-09-19T05:04:29.758Z,85.83
2022-09-19T05:06:56.444Z,86.21
2022-09-19T05:09:23.653Z,86.67
2022-09-19T05:11:50.667Z,86.25
2022-09-19T05:14:17.795Z,86.71
2022-09-19T05:16:44.510Z,86.17
2022-09-19T05:19:11.004Z,85.69
2022-09-19T05:21:38.009Z,86.69
2022-09-19T05:24:04.926Z,87.03
2022-09-19T05:26:31.371Z,86.89
2022-09-19T05:28:57.847Z,86.77
2022-09-19T05:31:26.104Z,86.76
2022-09-19T05:33:52.585Z,86.34
2022-09-19T05:36:19.512Z,86.58
2022-09-19T05:38:47.506Z,86.68
2022-09-19T05:41:14.017Z,86.89
2022-09-19T05:43:40.571Z,86.68
2022-09-19T05:46:07.042Z,87.00
2022-09-19T05:48:33.834Z,86.48
2022-09-19T05:51:00.343Z,86.95
2022-09-19T05:53:45.560Z,86.40
2022-09-19T05:56:11.980Z,86.73
2022-09-19T05:58:38.808Z,86.70
2022-09-19T06:01:10.964Z,87.13
2022-09-19T06:03:39.962Z,86.47
2022-09-19T06:06:12.898Z,87.01
2022-09-19T06:08:40.802Z,87.54
2022-09-19T06:11:08.304Z,86.90
2022-09-19T06:13:53.766Z,86.87
2022-09-19T06:16:21.221Z,86.68
2022-09-19T06:18:48.684Z,87.42
2022-09-19T06:21:15.243Z,87.25
2022-09-19T06:23:42.539Z,87.51
2022-09-19T06:26:09.465Z,87.54
2022-09-19T06:28:36.306Z,87.60
2022-09-19T06:31:04.426Z,87.84
2022-09-19T06:33:32.427Z,86.84
2022-09-19T06:36:00.480Z,86.85
2022-09-19T06:38:28.543Z,86.88
2022-09-19T06:40:55.140Z,87.77
2022-09-19T06:43:23.061Z,87.46
2022-09-19T06:45:49.754Z,87.23
2022-09-19T06:48:16.849Z,87.63
2022-09-19T06:50:47.787Z,87.57
2022-09-19T06:53:15.259Z,87.80
2022-09-19T06:55:46.850Z,87.71
2022-09-19T06:58:14.673Z,87.67
2022-09-19T07:00:41.475Z,87.69
2022-09-19T07:03:10.829Z,87.57
2022-09-19T07:05:40.448Z,87.55
2022-09-19T07:08:07.305Z,87.96
2022-09-19T07:10:36.338Z,87.58
2022-09-19T07:13:04.413Z,87.12
2022-09-19T07:15:36.125Z,87.02
2022-09-19T07:18:04.178Z,87.17
2022-09-19T07:20:30.698Z,87.51
2022-09-19T07:23:16.169Z,87.33
2022-09-19T07:25:44.681Z,87.27
2022-09-19T07:28:15.224Z,87.23
2022-09-19T07:30:44.514Z,87.55
2022-09-19T07:33:13.972Z,87.70
2022-09-19T07:35:43.777Z,87.60
2022-09-19T07:38:15.650Z,87.45
2022-09-19T07:40:43.696Z,86.73
2022-09-19T07:43:14.314Z,87.27
2022-09-19T07:45:47.507Z,86.63
2022-09-19T07:48:15.200Z,86.75
2022-09-19T07:50:41.912Z,85.86
2022-09-19T07:53:15.139Z,86.44
2022-09-19T07:55:43.425Z,86.28
2022-09-19T07:58:12.121Z,86.33
2022-09-19T08:00:40.380Z,84.70
2022-09-19T08:03:12.784Z,86.34
2022-09-19T08:05:41.702Z,86.31
2022-09-19T08:08:11.095Z,86.10
2022-09-19T08:10:38.449Z,85.95
2022-09-19T08:13:07.957Z,84.39
2022-09-19T08:15:35.960Z,85.31
2022-09-19T08:18:05.825Z,84.63
2022-09-19T08:20:35.024Z,83.86
2022-09-19T08:23:05.394Z,84.28
2022-09-19T08:25:35.919Z,81.43
2022-09-19T08:28:04.635Z,81.43
2022-09-19T08:30:32.437Z,80.28
2022-09-19T08:33:01.375Z,77.78
2022-09-19T08:35:29.458Z,79.01
2022-09-19T08:37:57.635Z,78.83
2022-09-19T08:40:35.958Z,78.73
2022-09-19T08:43:19.871Z,79.98
2022-09-19T08:46:04.742Z,81.30
2022-09-19T08:48:45.012Z,80.24
2022-09-19T08:51:37.332Z,80.10
2022-09-19T08:54:21.582Z,80.95
2022-09-19T08:56:48.114Z,83.16
2022-09-19T08:59:18.403Z,84.75
2022-09-19T09:01:50.339Z,85.42
2022-09-19T09:04:37.496Z,85.64
2022-09-19T09:07:17.184Z,85.59
2022-09-19T09:10:04.450Z,85.61
2022-09-19T09:12:46.273Z,85.62
2022-09-19T09:15:43.266Z,85.39
2022-09-19T09:18:35.841Z,85.79
2022-09-19T09:21:14.936Z,85.96
2022-09-19T09:23:49.497Z,85.61
2022-09-19T09:26:29.158Z,85.92
2022-09-19T09:29:15.186Z,83.79
2022-09-19T09:31:49.359Z,82.34
2022-09-19T09:34:37.723Z,82.37
2022-09-19T09:37:19.273Z,81.82
2022-09-19T09:40:10.394Z,82.44
2022-09-19T09:43:04.038Z,82.57
2022-09-19T09:45:36.659Z,82.89
2022-09-19T09:48:30.582Z,82.32
2022-09-19T09:51:06.645Z,80.99
2022-09-19T09:53:59.079Z,81.06
2022-09-19T09:56:35.203Z,79.17
2022-09-19T09:59:07.805Z,77.15
2022-09-19T10:02:06.572Z,78.09
2022-09-19T10:04:42.288Z,78.47
2022-09-19T10:07:45.603Z,82.19
2022-09-19T10:10:20.266Z,82.16
2022-09-19T10:13:00.859Z,83.51
2022-09-19T10:15:30.157Z,84.66
2022-09-19T10:18:08.460Z,85.85
2022-09-19T10:20:42.291Z,86.10
2022-09-19T10:23:15.633Z,86.10
2022-09-19T10:25:42.211Z,85.84
2022-09-19T10:28:28.179Z,84.67
2022-09-19T10:30:58.925Z,85.43
2022-09-19T10:33:45.585Z,84.17
2022-09-19T10:36:22.468Z,83.66
2022-09-19T10:38:59.627Z,82.21
2022-09-19T10:41:29.760Z,82.59
2022-09-19T10:44:01.706Z,77.64
2022-09-19T10:46:36.992Z,78.60
2022-09-19T10:49:22.876Z,76.22
2022-09-19T10:51:52.597Z,78.36
2022-09-19T10:54:39.589Z,78.16
2022-09-19T10:57:27.163Z,78.29
2022-09-19T11:00:03.573Z,79.24
2022-09-19T11:02:30.114Z,78.81
2022-09-19T11:05:02.105Z,77.72
2022-09-19T11:07:32.388Z,75.79
2022-09-19T11:10:05.268Z,77.30
2022-09-19T11:12:32.434Z,77.33
2022-09-19T11:15:01.088Z,75.67
2022-09-19T11:17:42.662Z,76.76
2022-09-19T11:20:17.390Z,75.41
2022-09-19T11:23:29.096Z,74.71
2022-09-19T11:26:31.125Z,75.49
2022-09-19T11:29:19.671Z,75.76
2022-09-19T11:35:26.635Z,72.99
2022-09-19T11:41:15.312Z,67.61
2022-09-19T11:44:03.521Z,69.74
2022-09-19T11:46:50.238Z,66.84
2022-09-19T11:49:29.169Z,66.20
2022-09-19T11:52:27.583Z,68.08
2022-09-19T11:55:14.751Z,67.13
2022-09-19T11:57:46.227Z,68.57
2022-09-19T12:00:20.127Z,68.79
2022-09-19T12:03:10.975Z,68.35
2022-09-19T12:05:50.992Z,67.39
2022-09-19T12:08:20.673Z,68.43
2022-09-19T12:11:06.377Z,68.85
2022-09-19T12:13:45.433Z,68.85
2022-09-19T12:16:25.978Z,68.77
2022-09-19T12:19:01.952Z,68.45
2022-09-19T12:21:36.422Z,69.45
2022-09-19T12:24:25.757Z,69.65
2022-09-19T12:26:59.564Z,69.92
2022-09-19T12:29:38.173Z,70.64
2022-09-19T12:32:16.375Z,70.72
2022-09-19T12:35:00.665Z,71.69
2022-09-19T12:37:45.852Z,74.06
2022-09-19T12:40:49.722Z,76.06
2022-09-19T12:43:53.539Z,77.35
2022-09-19T12:46:30.472Z,77.30
2022-09-19T12:49:05.922Z,77.42
2022-09-19T12:51:57.010Z,75.68
2022-09-19T12:54:45.350Z,76.63
2022-09-19T12:57:22.849Z,75.90
2022-09-19T12:59:51.341Z,76.11
2022-09-19T13:02:22.415Z,75.90
2022-09-19T13:05:00.281Z,76.17
2022-09-19T13:07:36.820Z,75.74
2022-09-19T13:10:18.389Z,76.11
2022-09-19T13:13:06.044Z,75.89
2022-09-19T13:15:40.748Z,75.10
2022-09-19T13:18:32.711Z,75.44
2022-09-19T13:21:19.431Z,72.37
2022-09-19T13:23:53.465Z,72.10
2022-09-19T13:26:33.222Z,72.79
2022-09-19T13:29:01.986Z,74.10
2022-09-19T13:31:57.539Z,74.97
2022-09-19T13:34:38.302Z,75.49
2022-09-19T13:37:46.614Z,74.24
2022-09-19T13:40:30.881Z,74.58
2022-09-19T13:43:30.097Z,72.87
2022-09-19T13:46:06.431Z,74.05
2022-09-19T13:48:53.996Z,73.68
2022-09-19T13:51:33.492Z,73.88
2022-09-19T13:54:32.052Z,72.29
2022-09-19T13:57:04.346Z,73.64
2022-09-19T13:59:36.220Z,74.18
2022-09-19T14:02:05.975Z,73.91
2022-09-19T14:04:59.431Z,73.35
2022-09-19T14:10:23.886Z,71.72
2022-09-19T14:12:56.638Z,72.15
2022-09-19T14:15:49.964Z,72.06
2022-09-19T14:18:16.726Z,72.14
2022-09-19T14:20:46.190Z,72.25
2022-09-19T14:23:13.249Z,72.32
2022-09-19T14:25:40.137Z,72.59
2022-09-19T14:28:28.159Z,72.55
2022-09-19T14:31:25.286Z,72.14
2022-09-19T14:34:23.070Z,70.38
2022-09-19T14:37:09.376Z,70.18
2022-09-19T14:39:50.581Z,68.49
2022-09-19T14:42:48.937Z,67.42
2022-09-19T14:45:39.974Z,67.86
2022-09-19T14:48:29.662Z,68.45
2022-09-19T14:50:58.721Z,69.63
2022-09-19T14:53:30.307Z,72.31
2022-09-19T14:56:17.724Z,73.56
2022-09-19T14:58:51.488Z,74.29
2022-09-19T15:01:28.740Z,74.32
2022-09-19T15:04:01.142Z,74.21
2022-09-19T15:06:30.529Z,74.07
2022-09-19T15:08:57.856Z,74.44
2022-09-19T15:11:25.366Z,74.47
2022-09-19T15:13:52.494Z,74.22
2022-09-19T15:16:19.296Z,75.47
2022-09-19T15:18:49.688Z,75.00
2022-09-19T15:21:25.110Z,75.13
2022-09-19T15:23:58.742Z,75.24
2022-09-19T15:26:29.077Z,75.30
2022-09-19T15:28:55.596Z,74.93
2022-09-19T15:31:24.459Z,74.34
2022-09-19T15:34:02.601Z,74.24
2022-09-19T15:36:31.337Z,74.37
2022-09-19T15:38:59.036Z,74.57
2022-09-19T15:41:28.447Z,75.10
2022-09-19T15:43:58.022Z,74.61
2022-09-19T15:46:24.656Z,74.87
2022-09-19T15:48:57.899Z,74.94
2022-09-19T15:51:33.405Z,74.84
2022-09-19T15:54:01.909Z,75.14
2022-09-19T15:56:28.751Z,75.08
2022-09-19T15:59:00.414Z,75.34
2022-09-19T16:01:30.169Z,75.75
2022-09-19T16:04:18.179Z,75.38
2022-09-19T16:07:09.499Z,75.63
2022-09-19T16:09:52.140Z,75.47
2022-09-19T16:12:21.394Z,74.85
2022-09-19T16:14:57.689Z,75.06
2022-09-19T16:17:27.119Z,74.62
2022-09-19T16:19:56.741Z,74.60
2022-09-19T16:22:25.744Z,75.01
2022-09-19T16:25:03.664Z,74.47
2022-09-19T16:27:33.850Z,74.09
2022-09-19T16:30:03.005Z,73.90
2022-09-19T16:32:31.126Z,74.16
2022-09-19T16:35:01.698Z,73.67
2022-09-19T16:37:39.999Z,72.00
2022-09-19T16:40:20.532Z,72.40
2022-09-19T16:42:47.521Z,71.68
2022-09-19T16:45:25.064Z,71.08
2022-09-19T16:47:52.276Z,71.20
2022-09-19T16:50:24.951Z,70.22
2022-09-19T16:52:52.289Z,70.44
2022-09-19T16:55:42.298Z,70.30
2022-09-19T16:58:15.879Z,68.69
2022-09-19T17:00:47.500Z,69.22
2022-09-19T17:03:16.067Z,68.76
2022-09-19T17:05:43.023Z,68.82
2022-09-19T17:08:09.540Z,67.91
2022-09-19T17:10:37.946Z,66.99
2022-09-19T17:13:04.727Z,67.53
2022-09-19T17:15:58.315Z,67.94
2022-09-19T17:18:25.304Z,67.53
2022-09-19T17:20:54.788Z,67.70
2022-09-19T17:23:21.620Z,67.63
2022-09-19T17:25:55.609Z,67.09
2022-09-19T17:28:26.178Z,67.49
2022-09-19T17:30:53.771Z,67.56
2022-09-19T17:33:22.685Z,67.75
2022-09-19T17:35:49.975Z,67.56
2022-09-19T17:38:16.820Z,67.41
2022-09-19T17:40:46.741Z,67.89
2022-09-19T17:43:17.486Z,67.12
2022-09-19T17:45:45.791Z,67.54
2022-09-19T17:48:16.551Z,67.52
2022-09-19T17:50:46.273Z,67.04
2022-09-19T17:53:12.861Z,67.96
2022-09-19T17:55:39.863Z,67.86
2022-09-19T17:58:09.253Z,66.84
2022-09-19T18:00:37.159Z,67.17
2022-09-19T18:03:21.404Z,67.73
2022-09-19T18:05:58.785Z,67.92
2022-09-19T18:08:30.574Z,68.02
2022-09-19T18:11:05.343Z,68.03
2022-09-19T18:13:37.207Z,67.73
2022-09-19T18:16:11.839Z,67.64
2022-09-19T18:18:38.870Z,67.81
2022-09-19T18:21:08.053Z,67.60
2022-09-19T18:23:36.734Z,67.80
2022-09-19T18:26:05.639Z,67.67
2022-09-19T18:28:34.687Z,67.40
2022-09-19T18:31:08.943Z,67.23
2022-09-19T18:33:36.150Z,67.54
2022-09-19T18:36:05.485Z,67.17
2022-09-19T18:38:32.288Z,67.59
2022-09-19T18:40:59.866Z,67.63
2022-09-19T18:43:26.914Z,67.15
2022-09-19T18:46:05.775Z,67.95
2022-09-19T18:48:32.510Z,67.71
2022-09-19T18:50:59.090Z,67.79
2022-09-19T18:53:26.844Z,68.10
2022-09-19T18:55:54.728Z,67.63
2022-09-19T18:58:22.032Z,67.77
2022-09-19T19:00:49.466Z,68.00
2022-09-19T19:03:17.159Z,68.51
2022-09-19T19:05:49.528Z,68.21
2022-09-19T19:08:16.842Z,68.56
2022-09-19T19:10:43.440Z,68.43
2022-09-19T19:13:10.035Z,68.44
2022-09-19T19:15:37.183Z,68.64
2022-09-19T19:18:06.323Z,68.96
2022-09-19T19:20:33.794Z,69.36
2022-09-19T19:23:00.604Z,69.39
2022-09-19T19:25:28.124Z,69.36
2022-09-19T19:27:56.948Z,69.91
2022-09-19T19:30:23.605Z,70.09
2022-09-19T19:32:50.126Z,69.86
2022-09-19T19:35:19.348Z,69.72
2022-09-19T19:37:46.190Z,70.20
2022-09-19T19:40:12.790Z,70.28
2022-09-19T19:42:39.325Z,70.42
2022-09-19T19:45:06.077Z,70.35
2022-09-19T19:47:32.536Z,70.82
2022-09-19T19:49:59.028Z,70.68
2022-09-19T19:52:25.480Z,71.16
2022-09-19T19:54:52.010Z,71.23
2022-09-19T19:57:18.598Z,71.20
2022-09-19T19:59:45.161Z,72.02
2022-09-19T20:02:13.662Z,71.85
2022-09-19T20:04:40.347Z,72.21
2022-09-19T20:07:06.800Z,71.72
2022-09-19T20:09:33.220Z,71.71
2022-09-19T20:12:00.474Z,72.13
2022-09-19T20:14:27.082Z,72.37
2022-09-19T20:16:53.738Z,72.49
2022-09-19T20:19:20.939Z,72.60
2022-09-19T20:21:50.771Z,72.67
2022-09-19T20:24:23.296Z,72.37
2022-09-19T20:26:51.487Z,72.90
2022-09-19T20:29:22.677Z,72.79
2022-09-19T20:31:50.407Z,72.72
2022-09-19T20:34:17.080Z,73.03
2022-09-19T20:36:43.978Z,72.87
2022-09-19T20:39:10.597Z,73.51
2022-09-19T20:41:38.043Z,72.67
2022-09-19T20:44:06.774Z,72.92
2022-09-19T20:46:34.800Z,73.22
2022-09-19T20:49:02.160Z,73.35
2022-09-19T20:51:29.098Z,73.06
2022-09-19T20:53:57.087Z,73.70
2022-09-19T20:56:26.301Z,73.32
2022-09-19T20:58:56.444Z,73.95
2022-09-19T21:01:25.895Z,74.12
2022-09-19T21:03:53.299Z,73.59
2022-09-19T21:06:20.475Z,73.71
2022-09-19T21:08:47.533Z,73.81
2022-09-19T21:11:15.371Z,74.05
2022-09-19T21:13:47.514Z,74.10
2022-09-19T21:16:17.546Z,74.10
2022-09-19T21:18:48.507Z,73.67
2022-09-19T21:21:19.268Z,74.33
2022-09-19T21:23:47.677Z,74.03
2022-09-19T21:26:23.841Z,74.68
2022-09-19T21:28:54.573Z,74.90
2022-09-19T21:31:23.495Z,74.97
2022-09-19T21:33:57.988Z,75.06
2022-09-19T21:36:26.209Z,75.29
2022-09-19T21:38:57.690Z,75.39
2022-09-19T21:41:25.305Z,75.01
2022-09-19T21:43:57.964Z,75.41
2022-09-19T21:46:26.595Z,75.29
2022-09-19T21:48:54.198Z,75.40
2022-09-19T21:51:26.132Z,75.36
2022-09-19T21:53:55.247Z,75.83
2022-09-19T21:56:23.317Z,75.87
2022-09-19T21:58:49.738Z,75.98
2022-09-19T22:01:23.969Z,76.70
2022-09-19T22:03:50.888Z,75.13
2022-09-19T22:06:17.728Z,75.56
2022-09-19T22:08:50.091Z,76.12
2022-09-19T22:11:19.611Z,75.98
2022-09-19T22:13:47.634Z,76.21
2022-09-19T22:16:17.463Z,76.34
2022-09-19T22:18:48.063Z,76.14
2022-09-19T22:21:16.232Z,76.40
2022-09-19T22:23:43.247Z,76.46
2022-09-19T22:26:12.768Z,76.59
2022-09-19T22:28:39.968Z,76.34
2022-09-19T22:31:12.605Z,77.09
2022-09-19T22:33:40.967Z,77.12
2022-09-19T22:36:09.885Z,76.96
2022-09-19T22:38:37.036Z,76.65
2022-09-19T22:41:06.031Z,77.08
2022-09-19T22:43:32.818Z,77.32
2022-09-19T22:45:59.739Z,77.58
2022-09-19T22:48:26.869Z,77.43
2022-09-19T22:50:53.633Z,77.78
2022-09-19T22:53:21.287Z,77.37
2022-09-19T22:55:57.396Z,78.12
2022-09-19T22:58:30.747Z,77.82
2022-09-19T23:01:05.114Z,77.98
2022-09-19T23:03:32.047Z,77.65
2022-09-19T23:06:03.779Z,78.08
2022-09-19T23:08:30.485Z,77.24
2022-09-19T23:11:00.712Z,77.73
2022-09-19T23:13:46.112Z,77.43
2022-09-19T23:16:20.363Z,77.78
2022-09-19T23:18:51.464Z,78.38
2022-09-19T23:21:18.491Z,77.54
2022-09-19T23:23:47.952Z,78.07
2022-09-19T23:26:14.957Z,77.96
2022-09-19T23:28:42.152Z,77.97
2022-09-19T23:31:09.520Z,78.30
2022-09-19T23:33:36.662Z,78.57
2022-09-19T23:36:17.981Z,78.40
2022-09-19T23:38:46.699Z,78.14
2022-09-19T23:41:14.592Z,78.07
2022-09-19T23:43:41.756Z,77.97
2022-09-19T23:46:08.502Z,78.23
2022-09-19T23:48:35.860Z,78.50
2022-09-19T23:51:03.882Z,78.28
2022-09-19T23:53:32.191Z,78.34
2022-09-19T23:55:59.693Z,78.27
2022-09-19T23:58:26.572Z,78.23
